sensor_id;sensor_type;location;lat;lon;timestamp;temperature;humidity
43987;DHT22;29650;47.378;8.300;2024-02-26T00:01:12;7.50;30.50
43987;DHT22;29650;47.378;8.300;2024-02-26T00:03:39;7.50;34.90
43987;DHT22;29650;47.378;8.300;2024-02-26T00:06:07;7.30;37.60
43987;DHT22;29650;47.378;8.300;2024-02-26T00:08:34;7.40;36.90
43987;DHT22;29650;47.378;8.300;2024-02-26T00:11:03;7.50;36.10
43987;DHT22;29650;47.378;8.300;2024-02-26T00:13:30;7.40;38.10
43987;DHT22;29650;47.378;8.300;2024-02-26T00:15:57;7.30;40.10
43987;DHT22;29650;47.378;8.300;2024-02-26T00:18:24;7.20;40.30
43987;DHT22;29650;47.378;8.300;2024-02-26T00:20:51;7.20;39.80
43987;DHT22;29650;47.378;8.300;2024-02-26T00:23:18;7.20;39.50
43987;DHT22;29650;47.378;8.300;2024-02-26T00:25:44;7.20;38.60
43987;DHT22;29650;47.378;8.300;2024-02-26T00:28:13;7.20;38.90
43987;DHT22;29650;47.378;8.300;2024-02-26T00:30:40;7.30;35.60
43987;DHT22;29650;47.378;8.300;2024-02-26T00:33:07;7.20;37.30
43987;DHT22;29650;47.378;8.300;2024-02-26T00:35:33;7.20;38.00
43987;DHT22;29650;47.378;8.300;2024-02-26T00:38:00;7.30;35.90
43987;DHT22;29650;47.378;8.300;2024-02-26T00:40:28;7.20;37.20
43987;DHT22;29650;47.378;8.300;2024-02-26T00:42:55;7.30;36.60
43987;DHT22;29650;47.378;8.300;2024-02-26T00:45:25;7.30;35.70
43987;DHT22;29650;47.378;8.300;2024-02-26T00:47:52;7.30;35.90
43987;DHT22;29650;47.378;8.300;2024-02-26T00:50:19;7.30;36.50
43987;DHT22;29650;47.378;8.300;2024-02-26T00:52:45;7.30;37.50
43987;DHT22;29650;47.378;8.300;2024-02-26T00:55:12;7.30;38.40
43987;DHT22;29650;47.378;8.300;2024-02-26T00:57:40;7.30;39.00
43987;DHT22;29650;47.378;8.300;2024-02-26T01:00:07;7.30;38.50
43987;DHT22;29650;47.378;8.300;2024-02-26T01:02:36;7.70;39.30
43987;DHT22;29650;47.378;8.300;2024-02-26T01:05:04;7.30;40.10
43987;DHT22;29650;47.378;8.300;2024-02-26T01:07:32;7.10;41.10
43987;DHT22;29650;47.378;8.300;2024-02-26T01:10:01;7.10;42.60
43987;DHT22;29650;47.378;8.300;2024-02-26T01:12:28;7.10;41.90
43987;DHT22;29650;47.378;8.300;2024-02-26T01:14:55;7.10;42.20
43987;DHT22;29650;47.378;8.300;2024-02-26T01:17:22;7.10;42.70
43987;DHT22;29650;47.378;8.300;2024-02-26T01:19:50;7.20;41.80
43987;DHT22;29650;47.378;8.300;2024-02-26T01:22:19;7.20;42.00
43987;DHT22;29650;47.378;8.300;2024-02-26T01:24:45;7.30;41.80
43987;DHT22;29650;47.378;8.300;2024-02-26T01:27:12;7.30;41.30
43987;DHT22;29650;47.378;8.300;2024-02-26T01:29:41;7.20;40.30
43987;DHT22;29650;47.378;8.300;2024-02-26T01:32:08;7.20;41.20
43987;DHT22;29650;47.378;8.300;2024-02-26T01:34:35;7.20;42.50
43987;DHT22;29650;47.378;8.300;2024-02-26T01:37:04;7.20;41.80
43987;DHT22;29650;47.378;8.300;2024-02-26T01:39:31;7.20;42.60
43987;DHT22;29650;47.378;8.300;2024-02-26T01:41:58;7.30;42.60
43987;DHT22;29650;47.378;8.300;2024-02-26T01:44:26;7.10;43.80
43987;DHT22;29650;47.378;8.300;2024-02-26T01:46:54;7.20;44.60
43987;DHT22;29650;47.378;8.300;2024-02-26T01:49:21;7.10;46.00
43987;DHT22;29650;47.378;8.300;2024-02-26T01:51:48;7.10;48.00
43987;DHT22;29650;47.378;8.300;2024-02-26T01:54:17;7.10;47.60
43987;DHT22;29650;47.378;8.300;2024-02-26T01:56:44;7.10;47.20
43987;DHT22;29650;47.378;8.300;2024-02-26T01:59:11;7.10;48.20
43987;DHT22;29650;47.378;8.300;2024-02-26T02:01:39;7.20;48.40
43987;DHT22;29650;47.378;8.300;2024-02-26T02:04:07;7.10;48.70
43987;DHT22;29650;47.378;8.300;2024-02-26T02:06:36;7.00;50.10
43987;DHT22;29650;47.378;8.300;2024-02-26T02:09:04;6.90;51.60
43987;DHT22;29650;47.378;8.300;2024-02-26T02:11:34;6.90;52.50
43987;DHT22;29650;47.378;8.300;2024-02-26T02:14:01;6.80;54.00
43987;DHT22;29650;47.378;8.300;2024-02-26T02:16:28;6.90;55.60
43987;DHT22;29650;47.378;8.300;2024-02-26T02:18:55;6.90;55.60
43987;DHT22;29650;47.378;8.300;2024-02-26T02:21:24;7.00;55.30
43987;DHT22;29650;47.378;8.300;2024-02-26T02:23:51;7.00;56.30
43987;DHT22;29650;47.378;8.300;2024-02-26T02:26:18;6.90;57.50
43987;DHT22;29650;47.378;8.300;2024-02-26T02:28:46;7.00;59.90
43987;DHT22;29650;47.378;8.300;2024-02-26T02:31:14;6.80;70.80
43987;DHT22;29650;47.378;8.300;2024-02-26T02:33:42;6.70;71.80
43987;DHT22;29650;47.378;8.300;2024-02-26T02:36:09;6.80;66.30
43987;DHT22;29650;47.378;8.300;2024-02-26T02:38:38;6.80;63.80
43987;DHT22;29650;47.378;8.300;2024-02-26T02:41:05;6.90;61.30
43987;DHT22;29650;47.378;8.300;2024-02-26T02:43:32;7.00;59.00
43987;DHT22;29650;47.378;8.300;2024-02-26T02:45:59;7.10;58.30
43987;DHT22;29650;47.378;8.300;2024-02-26T02:48:25;7.10;58.50
43987;DHT22;29650;47.378;8.300;2024-02-26T02:50:52;7.10;58.80
43987;DHT22;29650;47.378;8.300;2024-02-26T02:53:19;7.00;59.80
43987;DHT22;29650;47.378;8.300;2024-02-26T02:55:47;7.00;59.20
43987;DHT22;29650;47.378;8.300;2024-02-26T02:58:15;7.10;60.70
43987;DHT22;29650;47.378;8.300;2024-02-26T03:00:41;6.90;64.40
43987;DHT22;29650;47.378;8.300;2024-02-26T03:03:08;6.90;68.40
43987;DHT22;29650;47.378;8.300;2024-02-26T03:05:35;7.00;69.00
43987;DHT22;29650;47.378;8.300;2024-02-26T03:08:03;7.00;67.90
43987;DHT22;29650;47.378;8.300;2024-02-26T03:10:30;6.80;70.40
43987;DHT22;29650;47.378;8.300;2024-02-26T03:12:58;6.90;70.90
43987;DHT22;29650;47.378;8.300;2024-02-26T03:15:25;6.80;74.50
43987;DHT22;29650;47.378;8.300;2024-02-26T03:17:52;6.80;75.20
43987;DHT22;29650;47.378;8.300;2024-02-26T03:20:19;6.80;76.60
43987;DHT22;29650;47.378;8.300;2024-02-26T03:22:46;6.80;78.70
43987;DHT22;29650;47.378;8.300;2024-02-26T03:25:13;6.80;79.30
43987;DHT22;29650;47.378;8.300;2024-02-26T03:27:40;6.80;80.60
43987;DHT22;29650;47.378;8.300;2024-02-26T03:30:09;6.90;81.40
43987;DHT22;29650;47.378;8.300;2024-02-26T03:32:36;7.00;80.40
43987;DHT22;29650;47.378;8.300;2024-02-26T03:35:03;6.90;79.90
43987;DHT22;29650;47.378;8.300;2024-02-26T03:37:30;7.00;79.20
43987;DHT22;29650;47.378;8.300;2024-02-26T03:39:57;7.10;78.20
43987;DHT22;29650;47.378;8.300;2024-02-26T03:42:24;7.00;78.30
43987;DHT22;29650;47.378;8.300;2024-02-26T03:44:51;7.00;79.10
43987;DHT22;29650;47.378;8.300;2024-02-26T03:47:19;7.00;81.50
43987;DHT22;29650;47.378;8.300;2024-02-26T03:49:46;6.90;81.20
43987;DHT22;29650;47.378;8.300;2024-02-26T03:52:13;6.80;85.00
43987;DHT22;29650;47.378;8.300;2024-02-26T03:54:41;6.80;87.80
43987;DHT22;29650;47.378;8.300;2024-02-26T03:57:07;6.70;90.40
43987;DHT22;29650;47.378;8.300;2024-02-26T03:59:34;6.70;92.20
43987;DHT22;29650;47.378;8.300;2024-02-26T04:02:01;6.90;91.50
43987;DHT22;29650;47.378;8.300;2024-02-26T04:04:30;6.90;88.50
43987;DHT22;29650;47.378;8.300;2024-02-26T04:07:00;6.90;87.40
43987;DHT22;29650;47.378;8.300;2024-02-26T04:09:27;6.90;87.00
43987;DHT22;29650;47.378;8.300;2024-02-26T04:11:54;7.00;86.30
43987;DHT22;29650;47.378;8.300;2024-02-26T04:14:21;6.80;88.60
43987;DHT22;29650;47.378;8.300;2024-02-26T04:16:48;6.80;90.70
43987;DHT22;29650;47.378;8.300;2024-02-26T04:19:17;6.90;90.20
43987;DHT22;29650;47.378;8.300;2024-02-26T04:21:45;6.90;90.40
43987;DHT22;29650;47.378;8.300;2024-02-26T04:24:12;6.80;91.40
43987;DHT22;29650;47.378;8.300;2024-02-26T04:26:39;6.90;91.30
43987;DHT22;29650;47.378;8.300;2024-02-26T04:29:06;6.90;91.20
43987;DHT22;29650;47.378;8.300;2024-02-26T04:31:33;7.00;91.30
43987;DHT22;29650;47.378;8.300;2024-02-26T04:34:00;6.90;91.60
43987;DHT22;29650;47.378;8.300;2024-02-26T04:36:27;6.80;93.10
43987;DHT22;29650;47.378;8.300;2024-02-26T04:38:55;6.90;93.50
43987;DHT22;29650;47.378;8.300;2024-02-26T04:41:22;6.80;94.60
43987;DHT22;29650;47.378;8.300;2024-02-26T04:43:49;6.80;95.30
43987;DHT22;29650;47.378;8.300;2024-02-26T04:46:16;6.80;97.10
43987;DHT22;29650;47.378;8.300;2024-02-26T04:48:42;6.80;98.80
43987;DHT22;29650;47.378;8.300;2024-02-26T04:51:12;6.90;97.90
43987;DHT22;29650;47.378;8.300;2024-02-26T04:53:39;6.80;98.90
43987;DHT22;29650;47.378;8.300;2024-02-26T04:56:07;6.70;99.90
43987;DHT22;29650;47.378;8.300;2024-02-26T04:58:34;6.80;99.90
43987;DHT22;29650;47.378;8.300;2024-02-26T05:01:01;6.90;99.90
43987;DHT22;29650;47.378;8.300;2024-02-26T05:03:29;6.90;99.90
43987;DHT22;29650;47.378;8.300;2024-02-26T05:05:56;6.80;99.90
43987;DHT22;29650;47.378;8.300;2024-02-26T05:08:23;6.80;99.90
43987;DHT22;29650;47.378;8.300;2024-02-26T05:10:50;6.90;99.90
43987;DHT22;29650;47.378;8.300;2024-02-26T05:13:18;7.10;99.90
43987;DHT22;29650;47.378;8.300;2024-02-26T05:15:45;7.20;97.90
43987;DHT22;29650;47.378;8.300;2024-02-26T05:18:14;7.10;96.20
43987;DHT22;29650;47.378;8.300;2024-02-26T05:20:41;7.20;95.70
43987;DHT22;29650;47.378;8.300;2024-02-26T05:23:09;7.10;96.70
43987;DHT22;29650;47.378;8.300;2024-02-26T05:25:36;7.10;96.90
43987;DHT22;29650;47.378;8.300;2024-02-26T05:28:03;7.10;96.40
43987;DHT22;29650;47.378;8.300;2024-02-26T05:30:32;7.10;96.30
43987;DHT22;29650;47.378;8.300;2024-02-26T05:32:59;7.00;98.40
43987;DHT22;29650;47.378;8.300;2024-02-26T05:35:26;6.90;99.90
43987;DHT22;29650;47.378;8.300;2024-02-26T05:37:53;6.90;99.90
43987;DHT22;29650;47.378;8.300;2024-02-26T05:40:20;6.90;99.90
43987;DHT22;29650;47.378;8.300;2024-02-26T05:42:47;6.90;99.90
43987;DHT22;29650;47.378;8.300;2024-02-26T05:45:14;6.90;99.90
43987;DHT22;29650;47.378;8.300;2024-02-26T05:47:43;6.90;99.90
43987;DHT22;29650;47.378;8.300;2024-02-26T05:50:10;6.80;99.90
43987;DHT22;29650;47.378;8.300;2024-02-26T05:52:38;6.80;99.90
43987;DHT22;29650;47.378;8.300;2024-02-26T05:55:06;6.80;99.90
43987;DHT22;29650;47.378;8.300;2024-02-26T05:57:34;6.80;99.90
43987;DHT22;29650;47.378;8.300;2024-02-26T06:00:01;6.60;99.90
43987;DHT22;29650;47.378;8.300;2024-02-26T06:02:31;6.60;99.90
43987;DHT22;29650;47.378;8.300;2024-02-26T06:04:59;6.60;99.90
43987;DHT22;29650;47.378;8.300;2024-02-26T06:07:26;6.70;99.90
43987;DHT22;29650;47.378;8.300;2024-02-26T06:09:53;6.70;99.90
43987;DHT22;29650;47.378;8.300;2024-02-26T06:12:20;6.60;99.90
43987;DHT22;29650;47.378;8.300;2024-02-26T06:14:47;6.60;99.90
43987;DHT22;29650;47.378;8.300;2024-02-26T06:17:14;6.60;99.90
43987;DHT22;29650;47.378;8.300;2024-02-26T06:19:42;6.50;99.90
43987;DHT22;29650;47.378;8.300;2024-02-26T06:22:10;6.60;99.90
43987;DHT22;29650;47.378;8.300;2024-02-26T06:24:37;6.50;99.90
43987;DHT22;29650;47.378;8.300;2024-02-26T06:27:04;6.50;99.90
43987;DHT22;29650;47.378;8.300;2024-02-26T06:29:31;6.50;99.90
43987;DHT22;29650;47.378;8.300;2024-02-26T06:31:58;6.40;99.90
43987;DHT22;29650;47.378;8.300;2024-02-26T06:34:25;6.50;99.90
43987;DHT22;29650;47.378;8.300;2024-02-26T06:36:51;6.50;99.90
43987;DHT22;29650;47.378;8.300;2024-02-26T06:39:20;6.50;99.90
43987;DHT22;29650;47.378;8.300;2024-02-26T06:41:47;6.50;99.90
43987;DHT22;29650;47.378;8.300;2024-02-26T06:44:14;6.50;99.90
43987;DHT22;29650;47.378;8.300;2024-02-26T06:46:40;6.50;99.90
43987;DHT22;29650;47.378;8.300;2024-02-26T06:49:07;6.70;99.90
43987;DHT22;29650;47.378;8.300;2024-02-26T06:51:34;6.80;99.90
43987;DHT22;29650;47.378;8.300;2024-02-26T06:54:01;6.80;99.90
43987;DHT22;29650;47.378;8.300;2024-02-26T06:56:29;6.90;99.90
43987;DHT22;29650;47.378;8.300;2024-02-26T06:58:56;5.80;99.90
43987;DHT22;29650;47.378;8.300;2024-02-26T07:01:23;6.80;99.90
43987;DHT22;29650;47.378;8.300;2024-02-26T07:03:50;6.70;99.90
43987;DHT22;29650;47.378;8.300;2024-02-26T07:06:17;6.70;99.90
43987;DHT22;29650;47.378;8.300;2024-02-26T07:08:44;6.80;99.90
43987;DHT22;29650;47.378;8.300;2024-02-26T07:11:11;6.80;99.90
43987;DHT22;29650;47.378;8.300;2024-02-26T07:13:40;6.70;99.90
43987;DHT22;29650;47.378;8.300;2024-02-26T07:16:09;6.80;99.90
43987;DHT22;29650;47.378;8.300;2024-02-26T07:18:36;6.90;99.90
43987;DHT22;29650;47.378;8.300;2024-02-26T07:21:03;6.90;99.90
43987;DHT22;29650;47.378;8.300;2024-02-26T07:23:30;6.90;99.90
43987;DHT22;29650;47.378;8.300;2024-02-26T07:25:57;7.10;99.90
43987;DHT22;29650;47.378;8.300;2024-02-26T07:28:24;7.20;99.90
43987;DHT22;29650;47.378;8.300;2024-02-26T07:30:53;7.30;99.90
43987;DHT22;29650;47.378;8.300;2024-02-26T07:33:20;7.30;99.90
43987;DHT22;29650;47.378;8.300;2024-02-26T07:35:46;7.30;99.90
43987;DHT22;29650;47.378;8.300;2024-02-26T07:38:13;7.40;99.90
43987;DHT22;29650;47.378;8.300;2024-02-26T07:40:41;7.40;99.90
43987;DHT22;29650;47.378;8.300;2024-02-26T07:43:08;7.40;99.90
43987;DHT22;29650;47.378;8.300;2024-02-26T07:45:34;7.40;99.90
43987;DHT22;29650;47.378;8.300;2024-02-26T07:48:03;7.40;99.90
43987;DHT22;29650;47.378;8.300;2024-02-26T07:50:30;7.50;99.90
43987;DHT22;29650;47.378;8.300;2024-02-26T07:52:57;7.60;99.90
43987;DHT22;29650;47.378;8.300;2024-02-26T07:55:24;7.60;99.90
43987;DHT22;29650;47.378;8.300;2024-02-26T07:57:51;7.80;99.90
43987;DHT22;29650;47.378;8.300;2024-02-26T08:00:19;7.70;98.90
43987;DHT22;29650;47.378;8.300;2024-02-26T08:02:46;7.80;97.40
43987;DHT22;29650;47.378;8.300;2024-02-26T08:05:14;7.90;95.20
43987;DHT22;29650;47.378;8.300;2024-02-26T08:07:41;7.90;94.90
43987;DHT22;29650;47.378;8.300;2024-02-26T08:10:08;7.80;95.40
43987;DHT22;29650;47.378;8.300;2024-02-26T08:12:36;7.80;96.20
43987;DHT22;29650;47.378;8.300;2024-02-26T08:15:04;7.80;95.20
43987;DHT22;29650;47.378;8.300;2024-02-26T08:17:31;7.90;94.30
43987;DHT22;29650;47.378;8.300;2024-02-26T08:19:59;8.00;93.00
43987;DHT22;29650;47.378;8.300;2024-02-26T08:22:27;8.10;92.40
43987;DHT22;29650;47.378;8.300;2024-02-26T08:24:54;7.90;92.70
43987;DHT22;29650;47.378;8.300;2024-02-26T08:27:21;7.90;93.40
43987;DHT22;29650;47.378;8.300;2024-02-26T08:29:48;8.00;93.40
43987;DHT22;29650;47.378;8.300;2024-02-26T08:32:15;8.00;92.80
43987;DHT22;29650;47.378;8.300;2024-02-26T08:34:42;8.10;91.90
43987;DHT22;29650;47.378;8.300;2024-02-26T08:37:09;8.20;90.70
43987;DHT22;29650;47.378;8.300;2024-02-26T08:39:37;8.20;88.10
43987;DHT22;29650;47.378;8.300;2024-02-26T08:42:05;8.20;88.10
43987;DHT22;29650;47.378;8.300;2024-02-26T08:44:32;8.00;90.60
43987;DHT22;29650;47.378;8.300;2024-02-26T08:46:59;8.10;91.30
43987;DHT22;29650;47.378;8.300;2024-02-26T08:49:26;7.90;90.70
43987;DHT22;29650;47.378;8.300;2024-02-26T08:51:53;8.10;91.30
43987;DHT22;29650;47.378;8.300;2024-02-26T08:54:20;8.00;91.70
43987;DHT22;29650;47.378;8.300;2024-02-26T08:56:48;8.10;92.00
43987;DHT22;29650;47.378;8.300;2024-02-26T08:59:15;8.20;91.00
43987;DHT22;29650;47.378;8.300;2024-02-26T09:01:48;8.20;90.20
43987;DHT22;29650;47.378;8.300;2024-02-26T09:04:14;8.30;89.10
43987;DHT22;29650;47.378;8.300;2024-02-26T09:06:41;8.40;88.30
43987;DHT22;29650;47.378;8.300;2024-02-26T09:09:08;8.50;88.30
43987;DHT22;29650;47.378;8.300;2024-02-26T09:11:36;8.50;86.50
43987;DHT22;29650;47.378;8.300;2024-02-26T09:14:04;8.50;85.30
43987;DHT22;29650;47.378;8.300;2024-02-26T09:16:31;8.50;81.10
43987;DHT22;29650;47.378;8.300;2024-02-26T09:18:58;8.50;83.30
43987;DHT22;29650;47.378;8.300;2024-02-26T09:21:25;8.60;84.70
43987;DHT22;29650;47.378;8.300;2024-02-26T09:23:53;8.70;82.30
43987;DHT22;29650;47.378;8.300;2024-02-26T09:26:20;8.80;81.20
43987;DHT22;29650;47.378;8.300;2024-02-26T09:28:47;8.80;79.30
43987;DHT22;29650;47.378;8.300;2024-02-26T09:31:17;8.90;77.20
43987;DHT22;29650;47.378;8.300;2024-02-26T09:33:44;8.80;76.80
43987;DHT22;29650;47.378;8.300;2024-02-26T09:36:11;8.80;81.10
43987;DHT22;29650;47.378;8.300;2024-02-26T09:38:39;8.80;79.10
43987;DHT22;29650;47.378;8.300;2024-02-26T09:41:06;8.80;77.80
43987;DHT22;29650;47.378;8.300;2024-02-26T09:43:35;8.80;76.70
43987;DHT22;29650;47.378;8.300;2024-02-26T09:46:02;8.80;76.40
43987;DHT22;29650;47.378;8.300;2024-02-26T09:48:32;8.80;74.50
43987;DHT22;29650;47.378;8.300;2024-02-26T09:51:00;8.90;72.00
43987;DHT22;29650;47.378;8.300;2024-02-26T09:53:28;8.90;69.00
43987;DHT22;29650;47.378;8.300;2024-02-26T09:55:57;9.00;68.30
43987;DHT22;29650;47.378;8.300;2024-02-26T09:58:25;9.20;68.30
43987;DHT22;29650;47.378;8.300;2024-02-26T10:00:56;9.20;65.10
43987;DHT22;29650;47.378;8.300;2024-02-26T10:03:30;9.30;63.40
43987;DHT22;29650;47.378;8.300;2024-02-26T10:05:59;9.20;67.40
43987;DHT22;29650;47.378;8.300;2024-02-26T10:08:28;9.20;65.80
43987;DHT22;29650;47.378;8.300;2024-02-26T10:10:56;9.20;69.50
43987;DHT22;29650;47.378;8.300;2024-02-26T10:13:23;9.20;66.10
43987;DHT22;29650;47.378;8.300;2024-02-26T10:15:51;9.10;64.00
43987;DHT22;29650;47.378;8.300;2024-02-26T10:18:18;9.20;65.70
43987;DHT22;29650;47.378;8.300;2024-02-26T10:21:00;9.10;65.10
43987;DHT22;29650;47.378;8.300;2024-02-26T10:23:27;9.10;62.10
43987;DHT22;29650;47.378;8.300;2024-02-26T10:25:54;9.30;62.20
43987;DHT22;29650;47.378;8.300;2024-02-26T10:28:22;9.20;63.10
43987;DHT22;29650;47.378;8.300;2024-02-26T10:30:51;9.20;61.10
43987;DHT22;29650;47.378;8.300;2024-02-26T10:33:18;9.10;58.90
43987;DHT22;29650;47.378;8.300;2024-02-26T10:35:46;9.30;61.20
43987;DHT22;29650;47.378;8.300;2024-02-26T10:38:14;9.30;57.90
43987;DHT22;29650;47.378;8.300;2024-02-26T10:40:45;9.30;56.30
43987;DHT22;29650;47.378;8.300;2024-02-26T10:43:12;9.30;57.20
43987;DHT22;29650;47.378;8.300;2024-02-26T10:45:40;9.30;57.70
43987;DHT22;29650;47.378;8.300;2024-02-26T10:48:10;9.30;55.60
43987;DHT22;29650;47.378;8.300;2024-02-26T10:50:38;9.40;57.10
43987;DHT22;29650;47.378;8.300;2024-02-26T10:53:12;9.50;57.20
43987;DHT22;29650;47.378;8.300;2024-02-26T10:55:43;9.40;54.90
43987;DHT22;29650;47.378;8.300;2024-02-26T10:58:13;9.50;54.60
43987;DHT22;29650;47.378;8.300;2024-02-26T11:00:41;10.50;55.10
43987;DHT22;29650;47.378;8.300;2024-02-26T11:03:10;9.50;50.10
43987;DHT22;29650;47.378;8.300;2024-02-26T11:05:40;9.50;51.90
43987;DHT22;29650;47.378;8.300;2024-02-26T11:08:08;9.60;51.00
43987;DHT22;29650;47.378;8.300;2024-02-26T11:10:37;9.50;49.40
43987;DHT22;29650;47.378;8.300;2024-02-26T11:13:06;9.60;49.00
43987;DHT22;29650;47.378;8.300;2024-02-26T11:15:36;9.60;50.30
43987;DHT22;29650;47.378;8.300;2024-02-26T11:18:04;9.70;50.20
43987;DHT22;29650;47.378;8.300;2024-02-26T11:20:32;9.70;49.60
43987;DHT22;29650;47.378;8.300;2024-02-26T11:23:00;9.60;47.80
43987;DHT22;29650;47.378;8.300;2024-02-26T11:25:27;9.70;50.50
43987;DHT22;29650;47.378;8.300;2024-02-26T11:27:57;9.60;47.50
43987;DHT22;29650;47.378;8.300;2024-02-26T11:30:29;9.70;45.10
43987;DHT22;29650;47.378;8.300;2024-02-26T11:32:57;9.80;44.70
43987;DHT22;29650;47.378;8.300;2024-02-26T11:35:24;9.80;49.30
43987;DHT22;29650;47.378;8.300;2024-02-26T11:37:53;9.90;49.30
43987;DHT22;29650;47.378;8.300;2024-02-26T11:40:23;9.90;49.00
43987;DHT22;29650;47.378;8.300;2024-02-26T11:42:50;9.90;50.00
43987;DHT22;29650;47.378;8.300;2024-02-26T11:45:51;10.00;46.90
43987;DHT22;29650;47.378;8.300;2024-02-26T11:48:25;10.00;51.30
43987;DHT22;29650;47.378;8.300;2024-02-26T11:50:54;10.00;53.10
43987;DHT22;29650;47.378;8.300;2024-02-26T11:53:22;9.90;54.00
43987;DHT22;29650;47.378;8.300;2024-02-26T11:56:14;10.00;54.10
43987;DHT22;29650;47.378;8.300;2024-02-26T11:58:47;10.00;49.20
43987;DHT22;29650;47.378;8.300;2024-02-26T12:01:42;10.10;54.90
43987;DHT22;29650;47.378;8.300;2024-02-26T12:04:12;9.90;53.30
43987;DHT22;29650;47.378;8.300;2024-02-26T12:06:50;10.00;50.70
43987;DHT22;29650;47.378;8.300;2024-02-26T12:09:32;10.00;46.90
43987;DHT22;29650;47.378;8.300;2024-02-26T12:12:00;10.30;47.80
43987;DHT22;29650;47.378;8.300;2024-02-26T12:14:28;10.30;43.60
43987;DHT22;29650;47.378;8.300;2024-02-26T12:16:56;10.50;42.30
43987;DHT22;29650;47.378;8.300;2024-02-26T12:19:24;10.50;43.90
43987;DHT22;29650;47.378;8.300;2024-02-26T12:21:52;10.50;39.70
43987;DHT22;29650;47.378;8.300;2024-02-26T12:24:20;10.50;35.70
43987;DHT22;29650;47.378;8.300;2024-02-26T12:26:47;10.70;35.30
43987;DHT22;29650;47.378;8.300;2024-02-26T12:29:14;10.70;34.80
43987;DHT22;29650;47.378;8.300;2024-02-26T12:31:42;10.70;32.90
43987;DHT22;29650;47.378;8.300;2024-02-26T12:34:11;10.70;32.00
43987;DHT22;29650;47.378;8.300;2024-02-26T12:36:39;10.70;38.70
43987;DHT22;29650;47.378;8.300;2024-02-26T12:39:06;10.70;37.20
43987;DHT22;29650;47.378;8.300;2024-02-26T12:41:35;10.70;34.70
43987;DHT22;29650;47.378;8.300;2024-02-26T12:44:02;10.80;33.10
43987;DHT22;29650;47.378;8.300;2024-02-26T12:46:29;10.80;30.60
43987;DHT22;29650;47.378;8.300;2024-02-26T12:48:59;10.80;31.20
43987;DHT22;29650;47.378;8.300;2024-02-26T12:51:27;11.10;31.60
43987;DHT22;29650;47.378;8.300;2024-02-26T12:53:56;11.20;30.50
43987;DHT22;29650;47.378;8.300;2024-02-26T12:56:23;11.10;30.80
43987;DHT22;29650;47.378;8.300;2024-02-26T12:58:51;11.10;30.70
43987;DHT22;29650;47.378;8.300;2024-02-26T13:01:21;11.00;29.80
43987;DHT22;29650;47.378;8.300;2024-02-26T13:03:49;10.80;32.00
43987;DHT22;29650;47.378;8.300;2024-02-26T13:06:17;10.90;32.60
43987;DHT22;29650;47.378;8.300;2024-02-26T13:08:45;11.00;32.10
43987;DHT22;29650;47.378;8.300;2024-02-26T13:11:13;11.10;31.70
43987;DHT22;29650;47.378;8.300;2024-02-26T13:13:41;11.10;31.20
43987;DHT22;29650;47.378;8.300;2024-02-26T13:16:14;10.90;29.60
43987;DHT22;29650;47.378;8.300;2024-02-26T13:18:41;11.00;31.50
43987;DHT22;29650;47.378;8.300;2024-02-26T13:21:10;11.00;31.70
43987;DHT22;29650;47.378;8.300;2024-02-26T13:23:38;11.00;24.70
43987;DHT22;29650;47.378;8.300;2024-02-26T13:26:07;11.00;27.10
43987;DHT22;29650;47.378;8.300;2024-02-26T13:28:35;10.90;22.90
43987;DHT22;29650;47.378;8.300;2024-02-26T13:31:02;10.90;24.80
43987;DHT22;29650;47.378;8.300;2024-02-26T13:33:30;10.90;22.90
43987;DHT22;29650;47.378;8.300;2024-02-26T13:35:58;11.00;26.10
43987;DHT22;29650;47.378;8.300;2024-02-26T13:38:26;10.90;25.10
43987;DHT22;29650;47.378;8.300;2024-02-26T13:40:54;11.00;24.10
43987;DHT22;29650;47.378;8.300;2024-02-26T13:43:22;11.00;20.80
43987;DHT22;29650;47.378;8.300;2024-02-26T13:45:49;11.00;22.60
43987;DHT22;29650;47.378;8.300;2024-02-26T13:48:16;11.00;20.10
43987;DHT22;29650;47.378;8.300;2024-02-26T13:50:43;11.00;20.70
43987;DHT22;29650;47.378;8.300;2024-02-26T13:53:11;11.10;23.20
43987;DHT22;29650;47.378;8.300;2024-02-26T13:55:39;11.10;23.80
43987;DHT22;29650;47.378;8.300;2024-02-26T13:58:08;11.00;22.20
43987;DHT22;29650;47.378;8.300;2024-02-26T14:00:37;11.10;24.90
43987;DHT22;29650;47.378;8.300;2024-02-26T14:03:04;11.10;24.10
43987;DHT22;29650;47.378;8.300;2024-02-26T14:05:31;11.00;20.10
43987;DHT22;29650;47.378;8.300;2024-02-26T14:07:58;10.90;18.30
43987;DHT22;29650;47.378;8.300;2024-02-26T14:10:25;11.00;22.00
43987;DHT22;29650;47.378;8.300;2024-02-26T14:12:52;11.00;20.70
43987;DHT22;29650;47.378;8.300;2024-02-26T14:15:19;11.10;20.40
43987;DHT22;29650;47.378;8.300;2024-02-26T14:17:47;11.00;19.60
43987;DHT22;29650;47.378;8.300;2024-02-26T14:20:20;10.90;19.80
43987;DHT22;29650;47.378;8.300;2024-02-26T14:22:46;10.90;19.00
43987;DHT22;29650;47.378;8.300;2024-02-26T14:25:14;11.00;18.80
43987;DHT22;29650;47.378;8.300;2024-02-26T14:27:40;11.00;17.00
43987;DHT22;29650;47.378;8.300;2024-02-26T14:30:08;11.10;16.30
43987;DHT22;29650;47.378;8.300;2024-02-26T14:32:35;11.00;17.20
43987;DHT22;29650;47.378;8.300;2024-02-26T14:35:06;11.00;16.80
43987;DHT22;29650;47.378;8.300;2024-02-26T14:37:33;11.00;17.40
43987;DHT22;29650;47.378;8.300;2024-02-26T14:40:00;11.00;15.90
43987;DHT22;29650;47.378;8.300;2024-02-26T14:42:28;10.90;15.40
43987;DHT22;29650;47.378;8.300;2024-02-26T14:44:55;10.90;16.70
43987;DHT22;29650;47.378;8.300;2024-02-26T14:47:22;10.90;16.40
43987;DHT22;29650;47.378;8.300;2024-02-26T14:49:49;10.90;15.20
43987;DHT22;29650;47.378;8.300;2024-02-26T14:52:18;11.00;14.00
43987;DHT22;29650;47.378;8.300;2024-02-26T14:54:45;10.90;14.10
43987;DHT22;29650;47.378;8.300;2024-02-26T14:57:12;11.00;14.00
43987;DHT22;29650;47.378;8.300;2024-02-26T14:59:40;11.00;13.70
43987;DHT22;29650;47.378;8.300;2024-02-26T15:02:07;11.00;14.40
43987;DHT22;29650;47.378;8.300;2024-02-26T15:04:36;11.00;13.90
43987;DHT22;29650;47.378;8.300;2024-02-26T15:07:03;11.00;12.80
43987;DHT22;29650;47.378;8.300;2024-02-26T15:09:31;11.00;15.20
43987;DHT22;29650;47.378;8.300;2024-02-26T15:12:01;11.00;17.50
43987;DHT22;29650;47.378;8.300;2024-02-26T15:14:28;11.00;18.30
43987;DHT22;29650;47.378;8.300;2024-02-26T15:16:55;11.10;19.60
43987;DHT22;29650;47.378;8.300;2024-02-26T15:19:22;11.10;19.20
43987;DHT22;29650;47.378;8.300;2024-02-26T15:21:49;11.10;20.10
43987;DHT22;29650;47.378;8.300;2024-02-26T15:24:16;11.20;20.00
43987;DHT22;29650;47.378;8.300;2024-02-26T15:26:45;11.10;14.50
43987;DHT22;29650;47.378;8.300;2024-02-26T15:29:12;11.20;13.60
43987;DHT22;29650;47.378;8.300;2024-02-26T15:31:39;11.20;12.40
43987;DHT22;29650;47.378;8.300;2024-02-26T15:34:06;11.30;13.90
43987;DHT22;29650;47.378;8.300;2024-02-26T15:36:34;11.50;15.50
43987;DHT22;29650;47.378;8.300;2024-02-26T15:39:01;11.50;16.80
43987;DHT22;29650;47.378;8.300;2024-02-26T15:41:29;11.60;12.60
43987;DHT22;29650;47.378;8.300;2024-02-26T15:43:57;11.70;11.90
43987;DHT22;29650;47.378;8.300;2024-02-26T15:46:26;11.90;11.70